sensor_id;sensor_type;location;lat;lon;timestamp;temperature;humidity
9662;DHT22;24982;52.344;12.990;2023-06-01T00:02:50;16.80;99.90
9662;DHT22;24982;52.344;12.990;2023-06-01T00:05:52;16.90;99.90
9662;DHT22;24982;52.344;12.990;2023-06-01T00:08:55;16.80;99.90
9662;DHT22;24982;52.344;12.990;2023-06-01T00:11:58;16.80;99.90
9662;DHT22;24982;52.344;12.990;2023-06-01T00:15:00;16.80;99.90
9662;DHT22;24982;52.344;12.990;2023-06-01T00:18:02;16.80;99.90
9662;DHT22;24982;52.344;12.990;2023-06-01T00:21:06;16.90;99.90
9662;DHT22;24982;52.344;12.990;2023-06-01T00:24:09;16.80;99.90
9662;DHT22;24982;52.344;12.990;2023-06-01T00:27:11;16.90;99.90
9662;DHT22;24982;52.344;12.990;2023-06-01T00:30:14;16.90;99.90
9662;DHT22;24982;52.344;12.990;2023-06-01T00:33:16;16.90;99.90
9662;DHT22;24982;52.344;12.990;2023-06-01T00:36:19;16.90;99.90
9662;DHT22;24982;52.344;12.990;2023-06-01T00:39:22;16.90;99.90
9662;DHT22;24982;52.344;12.990;2023-06-01T00:42:24;17.00;99.90
9662;DHT22;24982;52.344;12.990;2023-06-01T00:45:26;17.00;99.90
9662;DHT22;24982;52.344;12.990;2023-06-01T00:48:28;16.90;99.90
9662;DHT22;24982;52.344;12.990;2023-06-01T00:51:32;16.90;99.90
9662;DHT22;24982;52.344;12.990;2023-06-01T00:54:36;16.90;99.90
9662;DHT22;24982;52.344;12.990;2023-06-01T00:57:39;16.80;99.90
9662;DHT22;24982;52.344;12.990;2023-06-01T01:00:46;16.80;99.90
9662;DHT22;24982;52.344;12.990;2023-06-01T01:03:50;16.90;99.90
9662;DHT22;24982;52.344;12.990;2023-06-01T01:07:06;16.50;99.90
9662;DHT22;24982;52.344;12.990;2023-06-01T01:10:19;16.80;99.90
9662;DHT22;24982;52.344;12.990;2023-06-01T01:13:27;16.90;99.90
9662;DHT22;24982;52.344;12.990;2023-06-01T01:16:42;16.90;99.90
9662;DHT22;24982;52.344;12.990;2023-06-01T01:19:53;16.80;99.90
9662;DHT22;24982;52.344;12.990;2023-06-01T01:23:19;16.80;99.90
9662;DHT22;24982;52.344;12.990;2023-06-01T01:26:36;16.80;99.90
9662;DHT22;24982;52.344;12.990;2023-06-01T01:29:46;16.80;99.90
9662;DHT22;24982;52.344;12.990;2023-06-01T01:32:48;16.80;99.90
9662;DHT22;24982;52.344;12.990;2023-06-01T01:35:51;16.80;99.90
9662;DHT22;24982;52.344;12.990;2023-06-01T01:38:53;16.70;99.90
9662;DHT22;24982;52.344;12.990;2023-06-01T01:41:55;16.70;99.90
9662;DHT22;24982;52.344;12.990;2023-06-01T01:44:59;16.70;99.90
9662;DHT22;24982;52.344;12.990;2023-06-01T01:48:08;16.80;99.90
9662;DHT22;24982;52.344;12.990;2023-06-01T01:51:16;16.70;99.90
9662;DHT22;24982;52.344;12.990;2023-06-01T01:54:24;16.70;99.90
9662;DHT22;24982;52.344;12.990;2023-06-01T01:57:27;16.80;99.90
9662;DHT22;24982;52.344;12.990;2023-06-01T02:00:33;16.70;99.90
9662;DHT22;24982;52.344;12.990;2023-06-01T02:03:35;16.60;99.90
9662;DHT22;24982;52.344;12.990;2023-06-01T02:06:37;16.60;99.90
9662;DHT22;24982;52.344;12.990;2023-06-01T02:09:40;16.60;99.90
9662;DHT22;24982;52.344;12.990;2023-06-01T02:12:43;16.60;99.90
9662;DHT22;24982;52.344;12.990;2023-06-01T02:15:47;16.60;99.90
9662;DHT22;24982;52.344;12.990;2023-06-01T02:18:49;16.60;99.90
9662;DHT22;24982;52.344;12.990;2023-06-01T02:21:52;16.60;99.90
9662;DHT22;24982;52.344;12.990;2023-06-01T02:24:54;16.60;99.90
9662;DHT22;24982;52.344;12.990;2023-06-01T02:27:57;16.50;99.90
9662;DHT22;24982;52.344;12.990;2023-06-01T02:31:00;16.50;99.90
9662;DHT22;24982;52.344;12.990;2023-06-01T02:34:03;16.50;99.90
9662;DHT22;24982;52.344;12.990;2023-06-01T02:37:06;16.50;99.90
9662;DHT22;24982;52.344;12.990;2023-06-01T02:40:08;16.50;99.90
9662;DHT22;24982;52.344;12.990;2023-06-01T02:43:12;16.50;99.90
9662;DHT22;24982;52.344;12.990;2023-06-01T02:46:15;16.50;99.90
9662;DHT22;24982;52.344;12.990;2023-06-01T02:49:17;16.40;99.90
9662;DHT22;24982;52.344;12.990;2023-06-01T02:52:19;16.40;99.90
9662;DHT22;24982;52.344;12.990;2023-06-01T02:55:21;16.30;99.90
9662;DHT22;24982;52.344;12.990;2023-06-01T02:58:48;16.20;99.90
9662;DHT22;24982;52.344;12.990;2023-06-01T03:02:00;16.20;99.90
9662;DHT22;24982;52.344;12.990;2023-06-01T03:05:04;16.20;99.90
9662;DHT22;24982;52.344;12.990;2023-06-01T03:08:07;16.20;99.90
9662;DHT22;24982;52.344;12.990;2023-06-01T03:11:09;16.20;99.90
9662;DHT22;24982;52.344;12.990;2023-06-01T03:14:12;16.10;99.90
9662;DHT22;24982;52.344;12.990;2023-06-01T03:17:15;16.00;99.90
9662;DHT22;24982;52.344;12.990;2023-06-01T03:20:17;16.10;99.90
9662;DHT22;24982;52.344;12.990;2023-06-01T03:23:19;16.50;99.90
9662;DHT22;24982;52.344;12.990;2023-06-01T03:26:23;16.00;99.90
9662;DHT22;24982;52.344;12.990;2023-06-01T03:29:25;15.90;99.90
9662;DHT22;24982;52.344;12.990;2023-06-01T03:32:28;16.00;99.90
9662;DHT22;24982;52.344;12.990;2023-06-01T03:35:32;15.90;99.90
9662;DHT22;24982;52.344;12.990;2023-06-01T03:38:34;15.80;99.90
9662;DHT22;24982;52.344;12.990;2023-06-01T03:41:37;15.70;99.90
9662;DHT22;24982;52.344;12.990;2023-06-01T03:44:39;15.70;99.90
9662;DHT22;24982;52.344;12.990;2023-06-01T03:47:46;15.70;99.90
9662;DHT22;24982;52.344;12.990;2023-06-01T03:50:48;15.80;99.90
9662;DHT22;24982;52.344;12.990;2023-06-01T03:53:51;15.60;99.90
9662;DHT22;24982;52.344;12.990;2023-06-01T03:56:53;15.60;99.90
9662;DHT22;24982;52.344;12.990;2023-06-01T03:59:55;15.70;99.90
9662;DHT22;24982;52.344;12.990;2023-06-01T04:03:00;15.80;99.90
9662;DHT22;24982;52.344;12.990;2023-06-01T04:06:04;15.70;99.90
9662;DHT22;24982;52.344;12.990;2023-06-01T04:09:15;15.70;99.90
9662;DHT22;24982;52.344;12.990;2023-06-01T04:12:18;15.60;99.90
9662;DHT22;24982;52.344;12.990;2023-06-01T04:15:21;15.70;99.90
9662;DHT22;24982;52.344;12.990;2023-06-01T04:18:25;15.70;99.90
9662;DHT22;24982;52.344;12.990;2023-06-01T04:21:34;15.70;99.90
9662;DHT22;24982;52.344;12.990;2023-06-01T04:24:37;15.70;99.90
9662;DHT22;24982;52.344;12.990;2023-06-01T04:27:43;15.80;99.90
9662;DHT22;24982;52.344;12.990;2023-06-01T04:30:46;15.90;99.90
9662;DHT22;24982;52.344;12.990;2023-06-01T04:33:50;15.90;99.90
9662;DHT22;24982;52.344;12.990;2023-06-01T04:36:55;15.90;99.90
9662;DHT22;24982;52.344;12.990;2023-06-01T04:39:57;15.80;99.90
9662;DHT22;24982;52.344;12.990;2023-06-01T04:42:59;15.90;99.90
9662;DHT22;24982;52.344;12.990;2023-06-01T04:46:04;15.70;99.90
9662;DHT22;24982;52.344;12.990;2023-06-01T04:49:09;15.90;99.90
9662;DHT22;24982;52.344;12.990;2023-06-01T04:52:12;16.00;99.90
9662;DHT22;24982;52.344;12.990;2023-06-01T04:55:15;15.80;99.90
9662;DHT22;24982;52.344;12.990;2023-06-01T04:58:18;15.90;99.90
9662;DHT22;24982;52.344;12.990;2023-06-01T05:01:21;15.90;99.90
9662;DHT22;24982;52.344;12.990;2023-06-01T05:04:27;15.80;99.90
9662;DHT22;24982;52.344;12.990;2023-06-01T05:07:29;15.80;99.90
9662;DHT22;24982;52.344;12.990;2023-06-01T05:10:31;15.70;99.90
9662;DHT22;24982;52.344;12.990;2023-06-01T05:13:34;15.70;99.90
9662;DHT22;24982;52.344;12.990;2023-06-01T05:16:37;15.60;99.90
9662;DHT22;24982;52.344;12.990;2023-06-01T05:19:40;15.70;99.90
9662;DHT22;24982;52.344;12.990;2023-06-01T05:22:42;15.70;99.90
9662;DHT22;24982;52.344;12.990;2023-06-01T05:25:44;15.70;99.90
9662;DHT22;24982;52.344;12.990;2023-06-01T05:28:47;15.70;99.90
9662;DHT22;24982;52.344;12.990;2023-06-01T05:31:49;15.70;99.90
9662;DHT22;24982;52.344;12.990;2023-06-01T05:34:53;15.70;99.90
9662;DHT22;24982;52.344;12.990;2023-06-01T05:37:55;15.60;99.90
9662;DHT22;24982;52.344;12.990;2023-06-01T05:40:57;15.70;99.90
9662;DHT22;24982;52.344;12.990;2023-06-01T05:43:59;15.60;99.90
9662;DHT22;24982;52.344;12.990;2023-06-01T05:47:02;15.60;99.90
9662;DHT22;24982;52.344;12.990;2023-06-01T05:50:06;15.60;99.90
9662;DHT22;24982;52.344;12.990;2023-06-01T05:53:08;15.60;99.90
9662;DHT22;24982;52.344;12.990;2023-06-01T05:56:11;15.70;99.90
9662;DHT22;24982;52.344;12.990;2023-06-01T05:59:13;15.80;99.90
9662;DHT22;24982;52.344;12.990;2023-06-01T06:02:15;15.80;99.90
9662;DHT22;24982;52.344;12.990;2023-06-01T06:05:18;15.70;99.90
9662;DHT22;24982;52.344;12.990;2023-06-01T06:08:21;15.90;99.90
9662;DHT22;24982;52.344;12.990;2023-06-01T06:11:23;15.80;99.90
9662;DHT22;24982;52.344;12.990;2023-06-01T06:14:26;15.80;99.90
9662;DHT22;24982;52.344;12.990;2023-06-01T06:17:28;15.70;99.90
9662;DHT22;24982;52.344;12.990;2023-06-01T06:20:31;15.80;99.90
9662;DHT22;24982;52.344;12.990;2023-06-01T06:23:33;15.90;99.90
9662;DHT22;24982;52.344;12.990;2023-06-01T06:26:35;15.90;99.90
9662;DHT22;24982;52.344;12.990;2023-06-01T06:29:37;16.00;99.90
9662;DHT22;24982;52.344;12.990;2023-06-01T06:32:40;16.00;99.90
9662;DHT22;24982;52.344;12.990;2023-06-01T06:35:43;15.90;99.90
9662;DHT22;24982;52.344;12.990;2023-06-01T06:38:45;16.00;99.90
9662;DHT22;24982;52.344;12.990;2023-06-01T06:41:47;16.00;99.90
9662;DHT22;24982;52.344;12.990;2023-06-01T06:44:49;16.20;99.90
9662;DHT22;24982;52.344;12.990;2023-06-01T06:47:51;16.20;99.90
9662;DHT22;24982;52.344;12.990;2023-06-01T06:50:55;16.20;99.90
9662;DHT22;24982;52.344;12.990;2023-06-01T06:53:57;16.40;99.90
9662;DHT22;24982;52.344;12.990;2023-06-01T06:57:03;16.30;99.90
9662;DHT22;24982;52.344;12.990;2023-06-01T07:00:07;16.30;99.90
9662;DHT22;24982;52.344;12.990;2023-06-01T07:03:09;16.20;99.90
9662;DHT22;24982;52.344;12.990;2023-06-01T07:06:13;16.30;99.90
9662;DHT22;24982;52.344;12.990;2023-06-01T07:09:15;16.30;99.90
9662;DHT22;24982;52.344;12.990;2023-06-01T07:12:17;16.30;99.90
9662;DHT22;24982;52.344;12.990;2023-06-01T07:15:19;16.30;99.90
9662;DHT22;24982;52.344;12.990;2023-06-01T07:18:22;16.40;99.90
9662;DHT22;24982;52.344;12.990;2023-06-01T07:21:25;16.50;99.90
9662;DHT22;24982;52.344;12.990;2023-06-01T07:24:27;16.50;99.90
9662;DHT22;24982;52.344;12.990;2023-06-01T07:27:29;16.50;99.90
9662;DHT22;24982;52.344;12.990;2023-06-01T07:30:32;16.60;99.90
9662;DHT22;24982;52.344;12.990;2023-06-01T07:33:34;16.60;99.90
9662;DHT22;24982;52.344;12.990;2023-06-01T07:36:38;16.70;99.90
9662;DHT22;24982;52.344;12.990;2023-06-01T07:39:41;16.70;99.90
9662;DHT22;24982;52.344;12.990;2023-06-01T07:42:43;16.70;99.90
9662;DHT22;24982;52.344;12.990;2023-06-01T07:45:45;16.90;99.90
9662;DHT22;24982;52.344;12.990;2023-06-01T07:48:47;16.90;99.90
9662;DHT22;24982;52.344;12.990;2023-06-01T07:51:50;17.00;99.90
9662;DHT22;24982;52.344;12.990;2023-06-01T07:54:53;17.10;99.90
9662;DHT22;24982;52.344;12.990;2023-06-01T07:57:56;17.10;99.90
9662;DHT22;24982;52.344;12.990;2023-06-01T08:00:58;17.00;99.90
9662;DHT22;24982;52.344;12.990;2023-06-01T08:04:00;17.00;99.90
9662;DHT22;24982;52.344;12.990;2023-06-01T08:07:05;17.00;99.90
9662;DHT22;24982;52.344;12.990;2023-06-01T08:10:08;17.10;99.90
9662;DHT22;24982;52.344;12.990;2023-06-01T08:13:10;17.20;99.90
9662;DHT22;24982;52.344;12.990;2023-06-01T08:16:13;17.20;99.90
9662;DHT22;24982;52.344;12.990;2023-06-01T08:19:15;17.10;99.90
9662;DHT22;24982;52.344;12.990;2023-06-01T08:22:19;17.20;99.90
9662;DHT22;24982;52.344;12.990;2023-06-01T08:25:22;17.30;99.90
9662;DHT22;24982;52.344;12.990;2023-06-01T08:28:24;17.30;99.90
9662;DHT22;24982;52.344;12.990;2023-06-01T08:31:26;17.30;99.90
9662;DHT22;24982;52.344;12.990;2023-06-01T08:34:28;17.50;99.90
9662;DHT22;24982;52.344;12.990;2023-06-01T08:37:31;17.60;99.90
9662;DHT22;24982;52.344;12.990;2023-06-01T08:40:33;17.60;99.90
9662;DHT22;24982;52.344;12.990;2023-06-01T08:43:36;17.80;99.90
9662;DHT22;24982;52.344;12.990;2023-06-01T08:46:41;17.90;99.90
9662;DHT22;24982;52.344;12.990;2023-06-01T08:49:44;18.20;99.90
9662;DHT22;24982;52.344;12.990;2023-06-01T08:52:49;18.30;99.90
9662;DHT22;24982;52.344;12.990;2023-06-01T08:55:56;18.30;99.90
9662;DHT22;24982;52.344;12.990;2023-06-01T08:58:59;18.50;99.90
9662;DHT22;24982;52.344;12.990;2023-06-01T09:02:02;18.70;99.90
9662;DHT22;24982;52.344;12.990;2023-06-01T09:05:04;18.70;99.90
9662;DHT22;24982;52.344;12.990;2023-06-01T09:08:08;18.80;99.90
9662;DHT22;24982;52.344;12.990;2023-06-01T09:11:10;19.10;99.90
9662;DHT22;24982;52.344;12.990;2023-06-01T09:14:19;19.20;99.90
9662;DHT22;24982;52.344;12.990;2023-06-01T09:17:23;19.30;99.90
9662;DHT22;24982;52.344;12.990;2023-06-01T09:20:27;19.40;99.90
9662;DHT22;24982;52.344;12.990;2023-06-01T09:23:31;19.50;99.90
9662;DHT22;24982;52.344;12.990;2023-06-01T09:26:33;19.60;99.90
9662;DHT22;24982;52.344;12.990;2023-06-01T09:29:34;19.70;99.90
9662;DHT22;24982;52.344;12.990;2023-06-01T09:32:38;19.90;99.90
9662;DHT22;24982;52.344;12.990;2023-06-01T09:35:41;20.10;99.90
9662;DHT22;24982;52.344;12.990;2023-06-01T09:38:45;20.20;99.90
9662;DHT22;24982;52.344;12.990;2023-06-01T09:41:49;20.30;99.90
9662;DHT22;24982;52.344;12.990;2023-06-01T09:44:52;20.30;99.90
9662;DHT22;24982;52.344;12.990;2023-06-01T09:48:17;20.40;99.90
9662;DHT22;24982;52.344;12.990;2023-06-01T09:51:21;20.70;99.90
9662;DHT22;24982;52.344;12.990;2023-06-01T09:54:33;20.80;99.90
9662;DHT22;24982;52.344;12.990;2023-06-01T09:57:36;21.00;99.90
9662;DHT22;24982;52.344;12.990;2023-06-01T10:00:38;21.30;99.90
9662;DHT22;24982;52.344;12.990;2023-06-01T10:03:42;21.50;99.90
9662;DHT22;24982;52.344;12.990;2023-06-01T10:06:44;21.40;99.90
9662;DHT22;24982;52.344;12.990;2023-06-01T10:09:50;22.10;99.90
9662;DHT22;24982;52.344;12.990;2023-06-01T10:12:52;22.10;99.90
9662;DHT22;24982;52.344;12.990;2023-06-01T10:15:54;22.10;99.90
9662;DHT22;24982;52.344;12.990;2023-06-01T10:18:57;22.20;99.90
9662;DHT22;24982;52.344;12.990;2023-06-01T10:22:00;22.50;99.90
9662;DHT22;24982;52.344;12.990;2023-06-01T10:25:06;22.60;99.90
9662;DHT22;24982;52.344;12.990;2023-06-01T10:28:11;22.80;99.90
9662;DHT22;24982;52.344;12.990;2023-06-01T10:31:36;23.00;99.90
9662;DHT22;24982;52.344;12.990;2023-06-01T10:34:40;23.10;99.90
9662;DHT22;24982;52.344;12.990;2023-06-01T10:37:42;23.30;99.90
9662;DHT22;24982;52.344;12.990;2023-06-01T10:40:46;23.40;99.90
9662;DHT22;24982;52.344;12.990;2023-06-01T10:43:48;23.50;99.90
9662;DHT22;24982;52.344;12.990;2023-06-01T10:46:50;23.50;99.90
9662;DHT22;24982;52.344;12.990;2023-06-01T10:50:07;23.70;99.90
9662;DHT22;24982;52.344;12.990;2023-06-01T10:53:34;23.80;99.90
9662;DHT22;24982;52.344;12.990;2023-06-01T10:56:37;24.00;99.90
9662;DHT22;24982;52.344;12.990;2023-06-01T10:59:39;24.10;99.90
9662;DHT22;24982;52.344;12.990;2023-06-01T11:02:52;24.30;99.90
9662;DHT22;24982;52.344;12.990;2023-06-01T11:05:54;24.30;99.90
9662;DHT22;24982;52.344;12.990;2023-06-01T11:08:58;24.50;99.90
9662;DHT22;24982;52.344;12.990;2023-06-01T11:12:02;24.50;99.90
9662;DHT22;24982;52.344;12.990;2023-06-01T11:15:11;24.60;99.90
9662;DHT22;24982;52.344;12.990;2023-06-01T11:18:44;24.70;99.90
9662;DHT22;24982;52.344;12.990;2023-06-01T11:21:47;24.70;99.90
9662;DHT22;24982;52.344;12.990;2023-06-01T11:24:51;24.80;99.90
9662;DHT22;24982;52.344;12.990;2023-06-01T11:27:55;25.00;99.90
9662;DHT22;24982;52.344;12.990;2023-06-01T11:31:00;25.10;99.90
9662;DHT22;24982;52.344;12.990;2023-06-01T11:34:04;25.30;99.90
9662;DHT22;24982;52.344;12.990;2023-06-01T11:37:06;25.30;99.90
9662;DHT22;24982;52.344;12.990;2023-06-01T11:40:14;25.40;99.90
9662;DHT22;24982;52.344;12.990;2023-06-01T11:43:27;25.50;99.90
9662;DHT22;24982;52.344;12.990;2023-06-01T11:46:29;25.50;99.90
9662;DHT22;24982;52.344;12.990;2023-06-01T11:49:39;25.60;99.90
9662;DHT22;24982;52.344;12.990;2023-06-01T11:52:42;25.80;99.90
9662;DHT22;24982;52.344;12.990;2023-06-01T11:55:50;26.00;99.90
9662;DHT22;24982;52.344;12.990;2023-06-01T11:58:57;26.00;99.90
9662;DHT22;24982;52.344;12.990;2023-06-01T12:01:59;26.00;99.90
9662;DHT22;24982;52.344;12.990;2023-06-01T12:05:03;26.10;99.90
9662;DHT22;24982;52.344;12.990;2023-06-01T12:08:07;26.20;99.90
9662;DHT22;24982;52.344;12.990;2023-06-01T12:11:09;26.20;99.90
9662;DHT22;24982;52.344;12.990;2023-06-01T12:14:15;26.30;99.90
9662;DHT22;24982;52.344;12.990;2023-06-01T12:17:17;26.20;99.90
9662;DHT22;24982;52.344;12.990;2023-06-01T12:20:26;26.20;99.90
9662;DHT22;24982;52.344;12.990;2023-06-01T12:23:28;26.10;99.90
9662;DHT22;24982;52.344;12.990;2023-06-01T12:26:35;26.20;99.90
9662;DHT22;24982;52.344;12.990;2023-06-01T12:29:42;26.10;99.90
9662;DHT22;24982;52.344;12.990;2023-06-01T12:32:45;26.10;99.90
9662;DHT22;24982;52.344;12.990;2023-06-01T12:35:50;26.10;99.90
9662;DHT22;24982;52.344;12.990;2023-06-01T12:38:52;26.00;99.80
9662;DHT22;24982;52.344;12.990;2023-06-01T12:41:54;25.90;99.70
9662;DHT22;24982;52.344;12.990;2023-06-01T12:44:57;25.90;99.90
9662;DHT22;24982;52.344;12.990;2023-06-01T12:47:59;25.90;99.90
9662;DHT22;24982;52.344;12.990;2023-06-01T12:51:02;25.80;99.90
9662;DHT22;24982;52.344;12.990;2023-06-01T12:54:04;25.70;99.90
9662;DHT22;24982;52.344;12.990;2023-06-01T12:57:12;25.80;99.90
9662;DHT22;24982;52.344;12.990;2023-06-01T13:00:17;25.60;99.90
9662;DHT22;24982;52.344;12.990;2023-06-01T13:03:19;25.50;99.90
9662;DHT22;24982;52.344;12.990;2023-06-01T13:06:23;25.40;99.90
9662;DHT22;24982;52.344;12.990;2023-06-01T13:09:24;25.30;99.90
9662;DHT22;24982;52.344;12.990;2023-06-01T13:12:26;25.30;99.80
9662;DHT22;24982;52.344;12.990;2023-06-01T13:15:30;25.30;99.40
9662;DHT22;24982;52.344;12.990;2023-06-01T13:18:32;25.20;99.00
9662;DHT22;24982;52.344;12.990;2023-06-01T13:21:34;25.10;99.10
9662;DHT22;24982;52.344;12.990;2023-06-01T13:24:36;25.10;99.80
9662;DHT22;24982;52.344;12.990;2023-06-01T13:27:38;25.20;99.40
9662;DHT22;24982;52.344;12.990;2023-06-01T13:30:41;25.20;99.90
9662;DHT22;24982;52.344;12.990;2023-06-01T13:33:44;25.10;99.40
9662;DHT22;24982;52.344;12.990;2023-06-01T13:36:46;25.10;99.90
9662;DHT22;24982;52.344;12.990;2023-06-01T13:39:48;25.00;99.80
9662;DHT22;24982;52.344;12.990;2023-06-01T13:42:50;25.00;99.90
9662;DHT22;24982;52.344;12.990;2023-06-01T13:45:54;25.00;99.20
9662;DHT22;24982;52.344;12.990;2023-06-01T13:48:56;25.10;99.90
9662;DHT22;24982;52.344;12.990;2023-06-01T13:51:58;25.10;99.90
9662;DHT22;24982;52.344;12.990;2023-06-01T13:55:00;25.20;99.90
9662;DHT22;24982;52.344;12.990;2023-06-01T13:58:03;25.10;99.80
9662;DHT22;24982;52.344;12.990;2023-06-01T14:01:07;25.20;99.90
9662;DHT22;24982;52.344;12.990;2023-06-01T14:04:09;25.30;99.70
9662;DHT22;24982;52.344;12.990;2023-06-01T14:07:11;25.20;98.40
9662;DHT22;24982;52.344;12.990;2023-06-01T14:10:13;25.30;99.60
9662;DHT22;24982;52.344;12.990;2023-06-01T14:13:17;25.20;99.30
9662;DHT22;24982;52.344;12.990;2023-06-01T14:16:20;25.30;99.40
9662;DHT22;24982;52.344;12.990;2023-06-01T14:19:22;25.30;99.50
9662;DHT22;24982;52.344;12.990;2023-06-01T14:22:27;25.30;99.80
9662;DHT22;24982;52.344;12.990;2023-06-01T14:25:29;25.30;99.90
9662;DHT22;24982;52.344;12.990;2023-06-01T14:28:31;25.10;99.40
9662;DHT22;24982;52.344;12.990;2023-06-01T14:31:34;25.40;99.90
9662;DHT22;24982;52.344;12.990;2023-06-01T14:34:37;25.30;99.90
9662;DHT22;24982;52.344;12.990;2023-06-01T14:37:38;25.30;99.90
9662;DHT22;24982;52.344;12.990;2023-06-01T14:40:40;25.40;99.90
9662;DHT22;24982;52.344;12.990;2023-06-01T14:43:42;25.60;99.90
9662;DHT22;24982;52.344;12.990;2023-06-01T14:46:46;25.70;99.90
9662;DHT22;24982;52.344;12.990;2023-06-01T14:49:48;25.80;99.90
9662;DHT22;24982;52.344;12.990;2023-06-01T14:52:50;26.00;99.90
9662;DHT22;24982;52.344;12.990;2023-06-01T14:55:52;26.10;99.20
9662;DHT22;24982;52.344;12.990;2023-06-01T14:58:54;26.00;99.80
9662;DHT22;24982;52.344;12.990;2023-06-01T15:01:57;26.00;99.90
9662;DHT22;24982;52.344;12.990;2023-06-01T15:05:02;26.00;99.90
9662;DHT22;24982;52.344;12.990;2023-06-01T15:08:05;26.00;99.90
9662;DHT22;24982;52.344;12.990;2023-06-01T15:11:07;26.00;99.40
9662;DHT22;24982;52.344;12.990;2023-06-01T15:14:10;26.00;99.60
9662;DHT22;24982;52.344;12.990;2023-06-01T15:17:13;26.00;99.30
9662;DHT22;24982;52.344;12.990;2023-06-01T15:20:15;26.00;98.50
9662;DHT22;24982;52.344;12.990;2023-06-01T15:23:17;25.90;99.40
9662;DHT22;24982;52.344;12.990;2023-06-01T15:26:19;25.70;99.10
9662;DHT22;24982;52.344;12.990;2023-06-01T15:29:21;25.60;99.20
9662;DHT22;24982;52.344;12.990;2023-06-01T15:32:24;25.50;98.40
9662;DHT22;24982;52.344;12.990;2023-06-01T15:35:26;25.40;98.10
9662;DHT22;24982;52.344;12.990;2023-06-01T15:38:28;25.10;98.90
9662;DHT22;24982;52.344;12.990;2023-06-01T15:41:30;24.90;99.90
9662;DHT22;24982;52.344;12.990;2023-06-01T15:44:32;24.70;99.80
9662;DHT22;24982;52.344;12.990;2023-06-01T15:47:36;24.60;99.70
9662;DHT22;24982;52.344;12.990;2023-06-01T15:50:38;24.40;99.30
9662;DHT22;24982;52.344;12.990;2023-06-01T15:53:40;23.90;99.20
9662;DHT22;24982;52.344;12.990;2023-06-01T15:56:42;23.90;99.90
9662;DHT22;24982;52.344;12.990;2023-06-01T15:59:44;24.00;99.90
9662;DHT22;24982;52.344;12.990;2023-06-01T16:02:47;23.70;99.90
9662;DHT22;24982;52.344;12.990;2023-06-01T16:05:49;23.60;99.90
9662;DHT22;24982;52.344;12.990;2023-06-01T16:08:51;23.60;99.90
9662;DHT22;24982;52.344;12.990;2023-06-01T16:11:54;23.50;99.90
9662;DHT22;24982;52.344;12.990;2023-06-01T16:14:56;23.30;99.90
9662;DHT22;24982;52.344;12.990;2023-06-01T16:17:59;23.20;99.90
9662;DHT22;24982;52.344;12.990;2023-06-01T16:21:01;23.10;99.90
9662;DHT22;24982;52.344;12.990;2023-06-01T16:24:03;23.10;99.90
9662;DHT22;24982;52.344;12.990;2023-06-01T16:27:06;23.10;99.90
9662;DHT22;24982;52.344;12.990;2023-06-01T16:30:09;23.10;99.90
9662;DHT22;24982;52.344;12.990;2023-06-01T16:33:12;23.00;99.90
9662;DHT22;24982;52.344;12.990;2023-06-01T16:36:14;22.90;99.90
9662;DHT22;24982;52.344;12.990;2023-06-01T16:39:16;22.80;99.90
9662;DHT22;24982;52.344;12.990;2023-06-01T16:42:18;22.50;99.90
9662;DHT22;24982;52.344;12.990;2023-06-01T16:45:20;22.80;99.90
9662;DHT22;24982;52.344;12.990;2023-06-01T16:48:25;22.70;99.90
9662;DHT22;24982;52.344;12.990;2023-06-01T16:51:27;22.50;99.90
9662;DHT22;24982;52.344;12.990;2023-06-01T16:54:29;22.50;99.90
9662;DHT22;24982;52.344;12.990;2023-06-01T16:57:31;22.40;99.90
9662;DHT22;24982;52.344;12.990;2023-06-01T17:00:33;22.30;99.90
9662;DHT22;24982;52.344;12.990;2023-06-01T17:03:37;22.30;99.90
9662;DHT22;24982;52.344;12.990;2023-06-01T17:06:39;22.30;99.90
9662;DHT22;24982;52.344;12.990;2023-06-01T17:09:41;22.30;99.90
9662;DHT22;24982;52.344;12.990;2023-06-01T17:12:43;22.20;99.90
9662;DHT22;24982;52.344;12.990;2023-06-01T17:15:45;22.20;99.90
9662;DHT22;24982;52.344;12.990;2023-06-01T17:18:48;22.10;99.90
9662;DHT22;24982;52.344;12.990;2023-06-01T17:21:50;22.00;99.90
9662;DHT22;24982;52.344;12.990;2023-06-01T17:24:52;21.90;99.90
9662;DHT22;24982;52.344;12.990;2023-06-01T17:27:54;21.90;99.90
9662;DHT22;24982;52.344;12.990;2023-06-01T17:30:57;21.80;99.90
9662;DHT22;24982;52.344;12.990;2023-06-01T17:34:03;21.70;99.90
9662;DHT22;24982;52.344;12.990;2023-06-01T17:37:05;21.70;99.90
9662;DHT22;24982;52.344;12.990;2023-06-01T17:40:08;21.60;99.90
9662;DHT22;24982;52.344;12.990;2023-06-01T17:43:10;21.60;99.90
9662;DHT22;24982;52.344;12.990;2023-06-01T17:46:12;21.50;99.90
9662;DHT22;24982;52.344;12.990;2023-06-01T17:49:15;21.50;99.90
9662;DHT22;24982;52.344;12.990;2023-06-01T17:52:17;21.50;99.90
9662;DHT22;24982;52.344;12.990;2023-06-01T17:55:19;21.30;99.90
9662;DHT22;24982;52.344;12.990;2023-06-01T17:58:21;21.30;99.90
9662;DHT22;24982;52.344;12.990;2023-06-01T18:01:23;21.20;99.90
9662;DHT22;24982;52.344;12.990;2023-06-01T18:04:29;21.20;99.90
9662;DHT22;24982;52.344;12.990;2023-06-01T18:07:31;21.10;99.90
9662;DHT22;24982;52.344;12.990;2023-06-01T18:10:33;21.10;99.90
9662;DHT22;24982;52.344;12.990;2023-06-01T18:13:35;21.00;99.90
9662;DHT22;24982;52.344;12.990;2023-06-01T18:16:37;21.00;99.90
9662;DHT22;24982;52.344;12.990;2023-06-01T18:19:41;20.90;99.90
9662;DHT22;24982;52.344;12.990;2023-06-01T18:22:43;20.90;99.90
9662;DHT22;24982;52.344;12.990;2023-06-01T18:25:46;20.80;99.90
9662;DHT22;24982;52.344;12.990;2023-06-01T18:28:51;20.70;99.90
9662;DHT22;24982;52.344;12.990;2023-06-01T18:31:53;20.60;99.90
9662;DHT22;24982;52.344;12.990;2023-06-01T18:34:56;20.50;99.90
9662;DHT22;24982;52.344;12.990;2023-06-01T18:37:58;20.10;99.90
9662;DHT22;24982;52.344;12.990;2023-06-01T18:41:01;20.60;99.90
9662;DHT22;24982;52.344;12.990;2023-06-01T18:44:03;20.50;99.90
9662;DHT22;24982;52.344;12.990;2023-06-01T18:47:05;20.50;99.90
9662;DHT22;24982;52.344;12.990;2023-06-01T18:50:10;20.40;99.90
9662;DHT22;24982;52.344;12.990;2023-06-01T18:53:13;20.40;99.90
9662;DHT22;24982;52.344;12.990;2023-06-01T18:56:15;20.20;99.90
9662;DHT22;24982;52.344;12.990;2023-06-01T18:59:17;20.20;99.90
9662;DHT22;24982;52.344;12.990;2023-06-01T19:02:21;20.20;99.90
9662;DHT22;24982;52.344;12.990;2023-06-01T19:05:25;20.20;99.90
9662;DHT22;24982;52.344;12.990;2023-06-01T19:08:29;20.10;99.90
9662;DHT22;24982;52.344;12.990;2023-06-01T19:11:32;20.10;99.90
9662;DHT22;24982;52.344;12.990;2023-06-01T19:14:34;20.00;99.90
9662;DHT22;24982;52.344;12.990;2023-06-01T19:17:37;20.00;99.90
9662;DHT22;24982;52.344;12.990;2023-06-01T19:21:00;19.90;99.90